sensor_id;sensor_type;location;lat;lon;timestamp;P1;durP1;ratioP1;P2;durP2;ratioP2
52718;SDS011;38616;42.140;24.760;2023-04-24T00:00:33;12.88;;;4.32;;
52718;SDS011;38616;42.140;24.760;2023-04-24T00:02:58;10.07;;;4.65;;
52718;SDS011;38616;42.140;24.760;2023-04-24T00:05:24;11.93;;;4.50;;
52718;SDS011;38616;42.140;24.760;2023-04-24T00:07:49;9.63;;;4.70;;
52718;SDS011;38616;42.140;24.760;2023-04-24T00:10:18;12.50;;;5.75;;
52718;SDS011;38616;42.140;24.760;2023-04-24T00:12:44;11.65;;;5.00;;
52718;SDS011;38616;42.140;24.760;2023-04-24T00:15:09;9.43;;;5.00;;
52718;SDS011;38616;42.140;24.760;2023-04-24T00:17:35;9.07;;;5.00;;
52718;SDS011;38616;42.140;24.760;2023-04-24T00:20:01;12.65;;;4.70;;
52718;SDS011;38616;42.140;24.760;2023-04-24T00:22:29;13.05;;;5.00;;
52718;SDS011;38616;42.140;24.760;2023-04-24T00:24:56;13.63;;;5.45;;
52718;SDS011;38616;42.140;24.760;2023-04-24T00:27:22;13.30;;;5.22;;
52718;SDS011;38616;42.140;24.760;2023-04-24T00:29:48;14.05;;;5.18;;
52718;SDS011;38616;42.140;24.760;2023-04-24T00:32:13;12.60;;;4.97;;
52718;SDS011;38616;42.140;24.760;2023-04-24T00:34:39;10.40;;;4.43;;
52718;SDS011;38616;42.140;24.760;2023-04-24T00:37:05;10.65;;;4.85;;
52718;SDS011;38616;42.140;24.760;2023-04-24T00:39:31;10.70;;;4.68;;
52718;SDS011;38616;42.140;24.760;2023-04-24T00:41:56;12.27;;;4.88;;
52718;SDS011;38616;42.140;24.760;2023-04-24T00:44:22;9.80;;;4.80;;
52718;SDS011;38616;42.140;24.760;2023-04-24T00:46:48;9.20;;;4.53;;
52718;SDS011;38616;42.140;24.760;2023-04-24T00:49:18;11.00;;;4.60;;
52718;SDS011;38616;42.140;24.760;2023-04-24T00:51:44;14.00;;;4.85;;
52718;SDS011;38616;42.140;24.760;2023-04-24T00:54:10;14.35;;;5.18;;
52718;SDS011;38616;42.140;24.760;2023-04-24T00:56:37;11.37;;;4.50;;
52718;SDS011;38616;42.140;24.760;2023-04-24T00:59:03;12.55;;;4.82;;
52718;SDS011;38616;42.140;24.760;2023-04-24T01:01:29;14.80;;;5.22;;
52718;SDS011;38616;42.140;24.760;2023-04-24T01:03:55;11.68;;;4.68;;
52718;SDS011;38616;42.140;24.760;2023-04-24T01:06:22;10.18;;;5.15;;
52718;SDS011;38616;42.140;24.760;2023-04-24T01:08:52;9.90;;;4.78;;
52718;SDS011;38616;42.140;24.760;2023-04-24T01:11:17;13.43;;;5.13;;
52718;SDS011;38616;42.140;24.760;2023-04-24T01:13:43;8.70;;;4.25;;
52718;SDS011;38616;42.140;24.760;2023-04-24T01:16:10;10.50;;;5.65;;
52718;SDS011;38616;42.140;24.760;2023-04-24T01:18:35;10.05;;;5.60;;
52718;SDS011;38616;42.140;24.760;2023-04-24T01:21:02;13.30;;;5.25;;
52718;SDS011;38616;42.140;24.760;2023-04-24T01:23:29;14.98;;;5.55;;
52718;SDS011;38616;42.140;24.760;2023-04-24T01:25:55;14.20;;;5.03;;
52718;SDS011;38616;42.140;24.760;2023-04-24T01:28:21;9.18;;;4.95;;
52718;SDS011;38616;42.140;24.760;2023-04-24T01:30:47;14.20;;;5.22;;
52718;SDS011;38616;42.140;24.760;2023-04-24T01:33:13;15.68;;;6.43;;
52718;SDS011;38616;42.140;24.760;2023-04-24T01:35:38;11.60;;;5.93;;
52718;SDS011;38616;42.140;24.760;2023-04-24T01:38:04;11.80;;;5.43;;
52718;SDS011;38616;42.140;24.760;2023-04-24T01:40:30;10.38;;;5.38;;
52718;SDS011;38616;42.140;24.760;2023-04-24T01:42:56;15.70;;;5.72;;
52718;SDS011;38616;42.140;24.760;2023-04-24T01:45:23;14.32;;;5.53;;
52718;SDS011;38616;42.140;24.760;2023-04-24T01:47:48;9.48;;;5.20;;
52718;SDS011;38616;42.140;24.760;2023-04-24T01:50:14;11.85;;;5.10;;
52718;SDS011;38616;42.140;24.760;2023-04-24T01:52:40;14.55;;;5.80;;
52718;SDS011;38616;42.140;24.760;2023-04-24T01:55:06;10.20;;;5.57;;
52718;SDS011;38616;42.140;24.760;2023-04-24T01:57:32;16.38;;;6.10;;
52718;SDS011;38616;42.140;24.760;2023-04-24T01:59:58;10.85;;;5.72;;
52718;SDS011;38616;42.140;24.760;2023-04-24T02:02:24;12.82;;;5.93;;
52718;SDS011;38616;42.140;24.760;2023-04-24T02:04:52;12.43;;;5.95;;
52718;SDS011;38616;42.140;24.760;2023-04-24T02:07:18;13.68;;;5.75;;
52718;SDS011;38616;42.140;24.760;2023-04-24T02:09:43;12.77;;;5.93;;
52718;SDS011;38616;42.140;24.760;2023-04-24T02:12:08;15.30;;;5.60;;
52718;SDS011;38616;42.140;24.760;2023-04-24T02:14:37;11.20;;;5.68;;
52718;SDS011;38616;42.140;24.760;2023-04-24T02:17:02;14.45;;;6.65;;
52718;SDS011;38616;42.140;24.760;2023-04-24T02:19:28;11.43;;;5.50;;
52718;SDS011;38616;42.140;24.760;2023-04-24T02:21:53;12.40;;;6.50;;
52718;SDS011;38616;42.140;24.760;2023-04-24T02:24:19;13.38;;;6.22;;
52718;SDS011;38616;42.140;24.760;2023-04-24T02:26:45;14.30;;;5.75;;
52718;SDS011;38616;42.140;24.760;2023-04-24T02:29:10;11.48;;;5.47;;
52718;SDS011;38616;42.140;24.760;2023-04-24T02:31:35;11.75;;;5.75;;
52718;SDS011;38616;42.140;24.760;2023-04-24T02:34:01;16.55;;;6.40;;
52718;SDS011;38616;42.140;24.760;2023-04-24T02:36:26;11.00;;;5.90;;
52718;SDS011;38616;42.140;24.760;2023-04-24T02:38:52;12.98;;;5.97;;
52718;SDS011;38616;42.140;24.760;2023-04-24T02:41:17;14.00;;;5.88;;
52718;SDS011;38616;42.140;24.760;2023-04-24T02:43:43;12.10;;;5.60;;
52718;SDS011;38616;42.140;24.760;2023-04-24T02:46:08;16.50;;;6.65;;
52718;SDS011;38616;42.140;24.760;2023-04-24T02:48:33;13.60;;;6.63;;
52718;SDS011;38616;42.140;24.760;2023-04-24T02:51:01;14.88;;;7.45;;
52718;SDS011;38616;42.140;24.760;2023-04-24T02:53:26;11.27;;;5.53;;
52718;SDS011;38616;42.140;24.760;2023-04-24T02:55:52;17.67;;;6.88;;
52718;SDS011;38616;42.140;24.760;2023-04-24T02:58:17;16.05;;;6.25;;
52718;SDS011;38616;42.140;24.760;2023-04-24T03:00:45;10.75;;;6.82;;
52718;SDS011;38616;42.140;24.760;2023-04-24T03:03:11;12.48;;;5.75;;
52718;SDS011;38616;42.140;24.760;2023-04-24T03:05:37;16.13;;;6.30;;
52718;SDS011;38616;42.140;24.760;2023-04-24T03:08:02;14.15;;;7.13;;
52718;SDS011;38616;42.140;24.760;2023-04-24T03:10:28;16.17;;;5.97;;
52718;SDS011;38616;42.140;24.760;2023-04-24T03:12:53;13.02;;;6.32;;
52718;SDS011;38616;42.140;24.760;2023-04-24T03:15:19;17.88;;;6.10;;
52718;SDS011;38616;42.140;24.760;2023-04-24T03:17:45;16.70;;;7.20;;
52718;SDS011;38616;42.140;24.760;2023-04-24T03:20:11;13.48;;;6.60;;
52718;SDS011;38616;42.140;24.760;2023-04-24T03:22:36;16.83;;;6.07;;
52718;SDS011;38616;42.140;24.760;2023-04-24T03:25:02;14.32;;;7.63;;
52718;SDS011;38616;42.140;24.760;2023-04-24T03:27:27;15.85;;;6.00;;
52718;SDS011;38616;42.140;24.760;2023-04-24T03:29:53;14.90;;;6.35;;
52718;SDS011;38616;42.140;24.760;2023-04-24T03:32:21;18.42;;;8.43;;
52718;SDS011;38616;42.140;24.760;2023-04-24T03:34:48;16.05;;;6.88;;
52718;SDS011;38616;42.140;24.760;2023-04-24T03:37:13;15.45;;;5.88;;
52718;SDS011;38616;42.140;24.760;2023-04-24T03:39:40;20.08;;;6.45;;
52718;SDS011;38616;42.140;24.760;2023-04-24T03:42:05;11.45;;;6.20;;
52718;SDS011;38616;42.140;24.760;2023-04-24T03:44:33;15.48;;;6.70;;
52718;SDS011;38616;42.140;24.760;2023-04-24T03:46:59;13.75;;;6.55;;
52718;SDS011;38616;42.140;24.760;2023-04-24T03:49:25;17.80;;;7.30;;
52718;SDS011;38616;42.140;24.760;2023-04-24T03:51:50;16.33;;;6.80;;
52718;SDS011;38616;42.140;24.760;2023-04-24T03:54:17;13.15;;;6.72;;
52718;SDS011;38616;42.140;24.760;2023-04-24T03:56:43;14.05;;;7.35;;
52718;SDS011;38616;42.140;24.760;2023-04-24T03:59:09;12.70;;;6.88;;
52718;SDS011;38616;42.140;24.760;2023-04-24T04:01:34;15.43;;;7.35;;
52718;SDS011;38616;42.140;24.760;2023-04-24T04:04:02;15.50;;;6.68;;
52718;SDS011;38616;42.140;24.760;2023-04-24T04:06:28;20.77;;;9.65;;
52718;SDS011;38616;42.140;24.760;2023-04-24T04:08:55;17.70;;;9.00;;
52718;SDS011;38616;42.140;24.760;2023-04-24T04:11:21;15.77;;;7.78;;
52718;SDS011;38616;42.140;24.760;2023-04-24T04:13:47;25.33;;;10.05;;
52718;SDS011;38616;42.140;24.760;2023-04-24T04:16:13;19.02;;;7.50;;
52718;SDS011;38616;42.140;24.760;2023-04-24T04:18:38;13.95;;;6.65;;
52718;SDS011;38616;42.140;24.760;2023-04-24T04:21:04;13.10;;;6.40;;
52718;SDS011;38616;42.140;24.760;2023-04-24T04:23:30;18.13;;;6.95;;
52718;SDS011;38616;42.140;24.760;2023-04-24T04:25:57;12.13;;;6.65;;
52718;SDS011;38616;42.140;24.760;2023-04-24T04:28:22;18.70;;;6.70;;
52718;SDS011;38616;42.140;24.760;2023-04-24T04:30:49;20.17;;;7.57;;
52718;SDS011;38616;42.140;24.760;2023-04-24T04:33:18;14.07;;;7.40;;
52718;SDS011;38616;42.140;24.760;2023-04-24T04:35:47;15.40;;;7.47;;
52718;SDS011;38616;42.140;24.760;2023-04-24T04:38:21;18.83;;;7.90;;
52718;SDS011;38616;42.140;24.760;2023-04-24T04:40:47;19.08;;;7.63;;
52718;SDS011;38616;42.140;24.760;2023-04-24T04:43:13;19.02;;;7.50;;
52718;SDS011;38616;42.140;24.760;2023-04-24T04:45:40;20.40;;;7.75;;
52718;SDS011;38616;42.140;24.760;2023-04-24T04:48:07;19.02;;;7.18;;
52718;SDS011;38616;42.140;24.760;2023-04-24T04:50:34;14.73;;;7.20;;
52718;SDS011;38616;42.140;24.760;2023-04-24T04:53:02;17.85;;;7.65;;
52718;SDS011;38616;42.140;24.760;2023-04-24T04:57:55;20.45;;;9.63;;
52718;SDS011;38616;42.140;24.760;2023-04-24T05:00:21;26.77;;;8.13;;
52718;SDS011;38616;42.140;24.760;2023-04-24T05:02:50;14.95;;;8.45;;
52718;SDS011;38616;42.140;24.760;2023-04-24T05:05:16;21.65;;;8.48;;
52718;SDS011;38616;42.140;24.760;2023-04-24T05:07:42;23.48;;;14.07;;
52718;SDS011;38616;42.140;24.760;2023-04-24T05:10:08;15.13;;;7.60;;
52718;SDS011;38616;42.140;24.760;2023-04-24T05:12:34;21.67;;;10.13;;
52718;SDS011;38616;42.140;24.760;2023-04-24T05:14:59;16.30;;;8.35;;
52718;SDS011;38616;42.140;24.760;2023-04-24T05:17:25;17.63;;;9.65;;
52718;SDS011;38616;42.140;24.760;2023-04-24T05:19:50;16.52;;;8.00;;
52718;SDS011;38616;42.140;24.760;2023-04-24T05:22:16;20.17;;;7.90;;
52718;SDS011;38616;42.140;24.760;2023-04-24T05:24:43;21.70;;;7.73;;
52718;SDS011;38616;42.140;24.760;2023-04-24T05:27:09;20.60;;;8.32;;
52718;SDS011;38616;42.140;24.760;2023-04-24T05:29:34;17.88;;;8.68;;
52718;SDS011;38616;42.140;24.760;2023-04-24T05:32:00;18.52;;;8.82;;
52718;SDS011;38616;42.140;24.760;2023-04-24T05:34:25;13.20;;;7.22;;
52718;SDS011;38616;42.140;24.760;2023-04-24T05:36:51;20.40;;;7.97;;
52718;SDS011;38616;42.140;24.760;2023-04-24T05:39:18;11.73;;;6.45;;
52718;SDS011;38616;42.140;24.760;2023-04-24T05:41:44;19.83;;;7.20;;
52718;SDS011;38616;42.140;24.760;2023-04-24T05:44:10;14.20;;;6.32;;
52718;SDS011;38616;42.140;24.760;2023-04-24T05:46:35;21.92;;;8.02;;
52718;SDS011;38616;42.140;24.760;2023-04-24T05:49:01;17.83;;;6.97;;
52718;SDS011;38616;42.140;24.760;2023-04-24T05:51:27;23.15;;;9.02;;
52718;SDS011;38616;42.140;24.760;2023-04-24T05:53:52;21.70;;;9.02;;
52718;SDS011;38616;42.140;24.760;2023-04-24T05:56:18;17.10;;;8.75;;
52718;SDS011;38616;42.140;24.760;2023-04-24T05:58:44;23.15;;;7.40;;
52718;SDS011;38616;42.140;24.760;2023-04-24T06:01:10;17.38;;;7.63;;
52718;SDS011;38616;42.140;24.760;2023-04-24T06:03:37;14.13;;;7.25;;
52718;SDS011;38616;42.140;24.760;2023-04-24T06:06:03;11.70;;;5.65;;
52718;SDS011;38616;42.140;24.760;2023-04-24T06:08:29;22.75;;;6.47;;
52718;SDS011;38616;42.140;24.760;2023-04-24T06:10:54;9.45;;;5.85;;
52718;SDS011;38616;42.140;24.760;2023-04-24T06:13:19;11.90;;;5.32;;
52718;SDS011;38616;42.140;24.760;2023-04-24T06:15:45;16.67;;;6.47;;
52718;SDS011;38616;42.140;24.760;2023-04-24T06:18:10;11.77;;;5.30;;
52718;SDS011;38616;42.140;24.760;2023-04-24T06:20:37;11.65;;;5.90;;
52718;SDS011;38616;42.140;24.760;2023-04-24T06:23:03;12.52;;;6.00;;
52718;SDS011;38616;42.140;24.760;2023-04-24T06:25:28;12.65;;;5.53;;
52718;SDS011;38616;42.140;24.760;2023-04-24T06:27:54;15.38;;;6.13;;
52718;SDS011;38616;42.140;24.760;2023-04-24T06:30:20;11.93;;;6.03;;
52718;SDS011;38616;42.140;24.760;2023-04-24T06:32:46;13.38;;;5.50;;
52718;SDS011;38616;42.140;24.760;2023-04-24T06:35:11;10.05;;;5.65;;
52718;SDS011;38616;42.140;24.760;2023-04-24T06:37:38;14.68;;;6.40;;
52718;SDS011;38616;42.140;24.760;2023-04-24T06:40:04;14.70;;;6.25;;
52718;SDS011;38616;42.140;24.760;2023-04-24T06:42:30;15.85;;;5.90;;
52718;SDS011;38616;42.140;24.760;2023-04-24T06:44:56;11.30;;;5.47;;
52718;SDS011;38616;42.140;24.760;2023-04-24T06:47:21;11.57;;;5.85;;
52718;SDS011;38616;42.140;24.760;2023-04-24T06:49:46;15.57;;;7.03;;
52718;SDS011;38616;42.140;24.760;2023-04-24T06:52:12;14.35;;;7.32;;
52718;SDS011;38616;42.140;24.760;2023-04-24T06:54:37;12.77;;;7.68;;
52718;SDS011;38616;42.140;24.760;2023-04-24T06:57:03;16.73;;;8.48;;
52718;SDS011;38616;42.140;24.760;2023-04-24T06:59:29;10.50;;;6.38;;
52718;SDS011;38616;42.140;24.760;2023-04-24T07:01:55;10.88;;;6.30;;
52718;SDS011;38616;42.140;24.760;2023-04-24T07:04:22;21.73;;;6.05;;
52718;SDS011;38616;42.140;24.760;2023-04-24T07:06:52;13.43;;;5.28;;
52718;SDS011;38616;42.140;24.760;2023-04-24T07:09:20;8.73;;;5.75;;
52718;SDS011;38616;42.140;24.760;2023-04-24T07:11:47;12.93;;;5.22;;
52718;SDS011;38616;42.140;24.760;2023-04-24T07:14:12;10.40;;;5.45;;
52718;SDS011;38616;42.140;24.760;2023-04-24T07:16:38;15.80;;;6.07;;
52718;SDS011;38616;42.140;24.760;2023-04-24T07:19:04;14.88;;;6.22;;
52718;SDS011;38616;42.140;24.760;2023-04-24T07:21:29;12.38;;;5.47;;
52718;SDS011;38616;42.140;24.760;2023-04-24T07:23:56;10.25;;;5.72;;
52718;SDS011;38616;42.140;24.760;2023-04-24T07:26:22;18.30;;;6.18;;
52718;SDS011;38616;42.140;24.760;2023-04-24T07:28:48;11.90;;;5.53;;
52718;SDS011;38616;42.140;24.760;2023-04-24T07:31:13;16.13;;;5.68;;
52718;SDS011;38616;42.140;24.760;2023-04-24T07:33:39;16.73;;;5.75;;
52718;SDS011;38616;42.140;24.760;2023-04-24T07:36:05;10.82;;;5.05;;
52718;SDS011;38616;42.140;24.760;2023-04-24T07:38:30;10.52;;;5.60;;
52718;SDS011;38616;42.140;24.760;2023-04-24T07:40:56;11.02;;;6.45;;
52718;SDS011;38616;42.140;24.760;2023-04-24T07:43:22;10.93;;;6.45;;
52718;SDS011;38616;42.140;24.760;2023-04-24T07:45:48;20.00;;;7.35;;
52718;SDS011;38616;42.140;24.760;2023-04-24T07:48:15;16.20;;;7.03;;
52718;SDS011;38616;42.140;24.760;2023-04-24T07:50:41;26.63;;;9.60;;
52718;SDS011;38616;42.140;24.760;2023-04-24T07:53:07;13.38;;;6.55;;
52718;SDS011;38616;42.140;24.760;2023-04-24T07:55:32;12.15;;;6.50;;
52718;SDS011;38616;42.140;24.760;2023-04-24T07:57:58;18.13;;;6.57;;
52718;SDS011;38616;42.140;24.760;2023-04-24T08:00:23;11.98;;;5.97;;
52718;SDS011;38616;42.140;24.760;2023-04-24T08:02:49;13.23;;;6.30;;
52718;SDS011;38616;42.140;24.760;2023-04-24T08:05:14;14.68;;;7.35;;
52718;SDS011;38616;42.140;24.760;2023-04-24T08:07:40;13.90;;;6.40;;
52718;SDS011;38616;42.140;24.760;2023-04-24T08:10:07;15.75;;;6.57;;
52718;SDS011;38616;42.140;24.760;2023-04-24T08:12:35;11.88;;;6.60;;
52718;SDS011;38616;42.140;24.760;2023-04-24T08:15:00;13.82;;;6.75;;
52718;SDS011;38616;42.140;24.760;2023-04-24T08:17:26;15.75;;;7.20;;
52718;SDS011;38616;42.140;24.760;2023-04-24T08:19:51;12.75;;;6.03;;
52718;SDS011;38616;42.140;24.760;2023-04-24T08:22:18;11.85;;;5.60;;
52718;SDS011;38616;42.140;24.760;2023-04-24T08:24:43;10.52;;;5.55;;
52718;SDS011;38616;42.140;24.760;2023-04-24T08:27:09;13.88;;;5.80;;
52718;SDS011;38616;42.140;24.760;2023-04-24T08:29:35;10.73;;;7.05;;
52718;SDS011;38616;42.140;24.760;2023-04-24T08:32:01;12.70;;;6.80;;
52718;SDS011;38616;42.140;24.760;2023-04-24T08:34:26;13.95;;;6.25;;
52718;SDS011;38616;42.140;24.760;2023-04-24T08:36:52;13.27;;;5.40;;
52718;SDS011;38616;42.140;24.760;2023-04-24T08:39:17;9.07;;;5.38;;
52718;SDS011;38616;42.140;24.760;2023-04-24T08:41:43;12.55;;;5.53;;
52718;SDS011;38616;42.140;24.760;2023-04-24T08:44:10;9.45;;;6.00;;
52718;SDS011;38616;42.140;24.760;2023-04-24T08:46:37;11.68;;;5.07;;
52718;SDS011;38616;42.140;24.760;2023-04-24T08:49:04;11.25;;;6.35;;
52718;SDS011;38616;42.140;24.760;2023-04-24T08:51:30;13.48;;;5.68;;
52718;SDS011;38616;42.140;24.760;2023-04-24T08:53:56;10.43;;;6.32;;
52718;SDS011;38616;42.140;24.760;2023-04-24T08:56:22;8.95;;;5.43;;
52718;SDS011;38616;42.140;24.760;2023-04-24T08:58:50;8.48;;;5.75;;
52718;SDS011;38616;42.140;24.760;2023-04-24T09:01:16;16.27;;;5.68;;
52718;SDS011;38616;42.140;24.760;2023-04-24T09:03:44;9.30;;;5.40;;
52718;SDS011;38616;42.140;24.760;2023-04-24T09:06:14;10.20;;;5.53;;
52718;SDS011;38616;42.140;24.760;2023-04-24T09:08:41;10.02;;;5.80;;
52718;SDS011;38616;42.140;24.760;2023-04-24T09:11:08;8.88;;;5.35;;
52718;SDS011;38616;42.140;24.760;2023-04-24T09:13:37;12.23;;;5.95;;
52718;SDS011;38616;42.140;24.760;2023-04-24T09:16:03;10.93;;;5.10;;
52718;SDS011;38616;42.140;24.760;2023-04-24T09:18:28;12.73;;;5.50;;
52718;SDS011;38616;42.140;24.760;2023-04-24T09:20:58;12.18;;;6.53;;
52718;SDS011;38616;42.140;24.760;2023-04-24T09:23:32;8.23;;;5.47;;
52718;SDS011;38616;42.140;24.760;2023-04-24T09:25:58;9.10;;;5.65;;
52718;SDS011;38616;42.140;24.760;2023-04-24T09:28:32;9.73;;;4.88;;
52718;SDS011;38616;42.140;24.760;2023-04-24T09:33:31;9.13;;;4.57;;
52718;SDS011;38616;42.140;24.760;2023-04-24T09:35:57;9.40;;;6.00;;
52718;SDS011;38616;42.140;24.760;2023-04-24T09:41:08;12.02;;;6.47;;
52718;SDS011;38616;42.140;24.760;2023-04-24T09:43:38;10.05;;;6.60;;
52718;SDS011;38616;42.140;24.760;2023-04-24T09:46:04;16.08;;;6.80;;
52718;SDS011;38616;42.140;24.760;2023-04-24T09:50:58;13.70;;;6.88;;
52718;SDS011;38616;42.140;24.760;2023-04-24T09:53:24;12.10;;;6.70;;
52718;SDS011;38616;42.140;24.760;2023-04-24T09:55:50;12.77;;;7.50;;
52718;SDS011;38616;42.140;24.760;2023-04-24T09:58:18;13.13;;;6.63;;
52718;SDS011;38616;42.140;24.760;2023-04-24T10:00:43;11.23;;;6.65;;
52718;SDS011;38616;42.140;24.760;2023-04-24T10:03:11;19.37;;;6.50;;
52718;SDS011;38616;42.140;24.760;2023-04-24T10:05:37;17.17;;;8.55;;
52718;SDS011;38616;42.140;24.760;2023-04-24T10:10:29;16.58;;;7.47;;
52718;SDS011;38616;42.140;24.760;2023-04-24T10:12:59;11.48;;;6.30;;
52718;SDS011;38616;42.140;24.760;2023-04-24T10:15:25;12.25;;;6.43;;
52718;SDS011;38616;42.140;24.760;2023-04-24T10:17:52;11.88;;;5.47;;
52718;SDS011;38616;42.140;24.760;2023-04-24T10:20:27;11.77;;;5.55;;
52718;SDS011;38616;42.140;24.760;2023-04-24T10:22:55;12.27;;;5.97;;
52718;SDS011;38616;42.140;24.760;2023-04-24T10:25:22;10.80;;;5.85;;
52718;SDS011;38616;42.140;24.760;2023-04-24T10:27:50;11.32;;;4.82;;
52718;SDS011;38616;42.140;24.760;2023-04-24T10:30:16;10.55;;;4.82;;
52718;SDS011;38616;42.140;24.760;2023-04-24T10:32:43;10.10;;;5.47;;
52718;SDS011;38616;42.140;24.760;2023-04-24T10:35:09;9.73;;;4.97;;
52718;SDS011;38616;42.140;24.760;2023-04-24T10:37:38;8.23;;;4.60;;
52718;SDS011;38616;42.140;24.760;2023-04-24T10:40:07;9.15;;;4.57;;
52718;SDS011;38616;42.140;24.760;2023-04-24T10:42:33;17.38;;;5.22;;
52718;SDS011;38616;42.140;24.760;2023-04-24T10:44:59;7.53;;;5.43;;
52718;SDS011;38616;42.140;24.760;2023-04-24T10:47:38;9.55;;;5.25;;
52718;SDS011;38616;42.140;24.760;2023-04-24T10:50:07;11.23;;;5.65;;
52718;SDS011;38616;42.140;24.760;2023-04-24T10:52:44;6.35;;;4.22;;
52718;SDS011;38616;42.140;24.760;2023-04-24T10:55:15;10.82;;;4.57;;
52718;SDS011;38616;42.140;24.760;2023-04-24T10:58:00;10.35;;;5.70;;
52718;SDS011;38616;42.140;24.760;2023-04-24T11:00:29;8.57;;;4.65;;
52718;SDS011;38616;42.140;24.760;2023-04-24T11:02:55;10.43;;;5.00;;
52718;SDS011;38616;42.140;24.760;2023-04-24T11:05:22;11.07;;;5.75;;
52718;SDS011;38616;42.140;24.760;2023-04-24T11:08:43;9.25;;;4.53;;
52718;SDS011;38616;42.140;24.760;2023-04-24T11:16:29;11.88;;;6.03;;
52718;SDS011;38616;42.140;24.760;2023-04-24T11:21:48;8.73;;;4.25;;
52718;SDS011;38616;42.140;24.760;2023-04-24T11:24:26;7.72;;;4.15;;
52718;SDS011;38616;42.140;24.760;2023-04-24T11:26:59;6.20;;;3.60;;
52718;SDS011;38616;42.140;24.760;2023-04-24T11:35:08;9.15;;;4.22;;
52718;SDS011;38616;42.140;24.760;2023-04-24T11:37:59;8.65;;;4.45;;
52718;SDS011;38616;42.140;24.760;2023-04-24T11:40:27;17.60;;;8.57;;
52718;SDS011;38616;42.140;24.760;2023-04-24T11:42:53;9.48;;;5.28;;
52718;SDS011;38616;42.140;24.760;2023-04-24T11:45:26;8.85;;;4.53;;
52718;SDS011;38616;42.140;24.760;2023-04-24T11:47:52;5.70;;;3.97;;
52718;SDS011;38616;42.140;24.760;2023-04-24T11:50:19;7.85;;;3.75;;
52718;SDS011;38616;42.140;24.760;2023-04-24T11:52:46;8.95;;;4.10;;
52718;SDS011;38616;42.140;24.760;2023-04-24T12:00:24;5.93;;;3.80;;
52718;SDS011;38616;42.140;24.760;2023-04-24T12:05:32;9.85;;;4.43;;
52718;SDS011;38616;42.140;24.760;2023-04-24T12:07:59;12.37;;;4.67;;
52718;SDS011;38616;42.140;24.760;2023-04-24T12:10:25;11.75;;;4.45;;
52718;SDS011;38616;42.140;24.760;2023-04-24T12:12:53;8.95;;;4.30;;
52718;SDS011;38616;42.140;24.760;2023-04-24T12:15:21;8.63;;;5.32;;
52718;SDS011;38616;42.140;24.760;2023-04-24T12:17:47;7.85;;;3.65;;
52718;SDS011;38616;42.140;24.760;2023-04-24T12:20:15;15.40;;;4.95;;
52718;SDS011;38616;42.140;24.760;2023-04-24T12:22:48;7.10;;;4.15;;
52718;SDS011;38616;42.140;24.760;2023-04-24T12:25:14;6.18;;;3.63;;
52718;SDS011;38616;42.140;24.760;2023-04-24T12:27:41;5.22;;;4.05;;
52718;SDS011;38616;42.140;24.760;2023-04-24T12:30:12;8.93;;;4.00;;
52718;SDS011;38616;42.140;24.760;2023-04-24T12:32:46;5.13;;;3.65;;
52718;SDS011;38616;42.140;24.760;2023-04-24T12:35:13;9.85;;;4.13;;
52718;SDS011;38616;42.140;24.760;2023-04-24T12:37:41;7.78;;;3.85;;
52718;SDS011;38616;42.140;24.760;2023-04-24T12:40:08;8.93;;;3.25;;
52718;SDS011;38616;42.140;24.760;2023-04-24T12:42:41;7.57;;;4.10;;
52718;SDS011;38616;42.140;24.760;2023-04-24T12:45:15;6.80;;;3.92;;
52718;SDS011;38616;42.140;24.760;2023-04-24T12:47:42;19.88;;;3.90;;
52718;SDS011;38616;42.140;24.760;2023-04-24T12:50:09;9.32;;;3.65;;
52718;SDS011;38616;42.140;24.760;2023-04-24T12:52:38;6.35;;;3.78;;
52718;SDS011;38616;42.140;24.760;2023-04-24T12:55:04;7.18;;;3.20;;
52718;SDS011;38616;42.140;24.760;2023-04-24T12:57:31;7.13;;;3.65;;
52718;SDS011;38616;42.140;24.760;2023-04-24T12:59:57;6.00;;;3.78;;
52718;SDS011;38616;42.140;24.760;2023-04-24T13:02:24;4.93;;;3.20;;
52718;SDS011;38616;42.140;24.760;2023-04-24T13:04:51;5.37;;;3.67;;
52718;SDS011;38616;42.140;24.760;2023-04-24T13:07:18;5.65;;;3.92;;
52718;SDS011;38616;42.140;24.760;2023-04-24T13:09:44;6.57;;;3.70;;
52718;SDS011;38616;42.140;24.760;2023-04-24T13:12:10;6.95;;;3.70;;
52718;SDS011;38616;42.140;24.760;2023-04-24T13:14:37;7.20;;;3.45;;
52718;SDS011;38616;42.140;24.760;2023-04-24T13:17:03;11.75;;;4.15;;
52718;SDS011;38616;42.140;24.760;2023-04-24T13:19:29;9.30;;;3.35;;
52718;SDS011;38616;42.140;24.760;2023-04-24T13:22:00;8.10;;;3.85;;
52718;SDS011;38616;42.140;24.760;2023-04-24T13:24:25;5.93;;;3.05;;
52718;SDS011;38616;42.140;24.760;2023-04-24T13:26:51;8.20;;;3.63;;
52718;SDS011;38616;42.140;24.760;2023-04-24T13:29:17;7.32;;;3.45;;
52718;SDS011;38616;42.140;24.760;2023-04-24T13:31:43;5.47;;;3.55;;
52718;SDS011;38616;42.140;24.760;2023-04-24T13:34:09;5.13;;;3.88;;
52718;SDS011;38616;42.140;24.760;2023-04-24T13:36:34;6.68;;;3.58;;
52718;SDS011;38616;42.140;24.760;2023-04-24T13:39:00;7.53;;;3.42;;
52718;SDS011;38616;42.140;24.760;2023-04-24T13:41:26;10.15;;;3.67;;
52718;SDS011;38616;42.140;24.760;2023-04-24T13:43:51;7.32;;;3.20;;
52718;SDS011;38616;42.140;24.760;2023-04-24T13:46:17;5.60;;;3.22;;
52718;SDS011;38616;42.140;24.760;2023-04-24T13:48:42;7.82;;;3.90;;
52718;SDS011;38616;42.140;24.760;2023-04-24T13:51:07;6.32;;;3.60;;
52718;SDS011;38616;42.140;24.760;2023-04-24T13:53:33;5.45;;;3.78;;
52718;SDS011;38616;42.140;24.760;2023-04-24T13:56:01;5.78;;;3.50;;
52718;SDS011;38616;42.140;24.760;2023-04-24T13:58:27;8.18;;;4.07;;
52718;SDS011;38616;42.140;24.760;2023-04-24T14:00:52;6.28;;;3.67;;
52718;SDS011;38616;42.140;24.760;2023-04-24T14:03:18;5.75;;;3.40;;
52718;SDS011;38616;42.140;24.760;2023-04-24T14:05:43;6.72;;;3.50;;
52718;SDS011;38616;42.140;24.760;2023-04-24T14:08:09;10.25;;;3.40;;
52718;SDS011;38616;42.140;24.760;2023-04-24T14:10:34;6.90;;;3.00;;
52718;SDS011;38616;42.140;24.760;2023-04-24T14:13:00;6.13;;;3.45;;
52718;SDS011;38616;42.140;24.760;2023-04-24T14:15:25;5.43;;;3.33;;
52718;SDS011;38616;42.140;24.760;2023-04-24T14:17:51;7.93;;;3.63;;
52718;SDS011;38616;42.140;24.760;2023-04-24T14:20:16;4.65;;;3.22;;
52718;SDS011;38616;42.140;24.760;2023-04-24T14:22:42;6.03;;;3.70;;
52718;SDS011;38616;42.140;24.760;2023-04-24T14:25:10;5.90;;;3.72;;
52718;SDS011;38616;42.140;24.760;2023-04-24T14:27:38;3.42;;;2.80;;
52718;SDS011;38616;42.140;24.760;2023-04-24T14:30:05;10.43;;;3.27;;
52718;SDS011;38616;42.140;24.760;2023-04-24T14:32:31;5.57;;;3.25;;
52718;SDS011;38616;42.140;24.760;2023-04-24T14:34:56;5.30;;;3.25;;
52718;SDS011;38616;42.140;24.760;2023-04-24T14:37:22;5.32;;;3.30;;
52718;SDS011;38616;42.140;24.760;2023-04-24T14:39:47;4.88;;;3.17;;
52718;SDS011;38616;42.140;24.760;2023-04-24T14:42:15;7.00;;;2.92;;
52718;SDS011;38616;42.140;24.760;2023-04-24T14:44:42;4.95;;;3.10;;
52718;SDS011;38616;42.140;24.760;2023-04-24T14:47:07;8.10;;;3.53;;
52718;SDS011;38616;42.140;24.760;2023-04-24T14:49:32;7.95;;;4.05;;
52718;SDS011;38616;42.140;24.760;2023-04-24T14:51:58;8.40;;;3.50;;
52718;SDS011;38616;42.140;24.760;2023-04-24T14:54:23;7.25;;;2.90;;
52718;SDS011;38616;42.140;24.760;2023-04-24T14:56:50;7.30;;;3.30;;